Time;durP1;ratioP1;P1;durP2;ratioP2;P2;SDS_P1;SDS_P2;PMS_P1;PMS_P2;Temp;Humidity;BMP_temperature;BMP_pressure;BME280_temperature;BME280_humidity;BME280_pressure;Samples;Min_cycle;Max_cycle;Signal;HPM_P1;HPM_P2
2023/07/23 05:11:20;;;;;;;;;;;;;;;;;;5070505;28;19931;-46
2023/07/23 05:13:46;;;;;;;;;;;;;;;;;;5070688;28;19913;-49
2023/07/23 05:16:11;;;;;;;;;;;;;;;;;;5070868;28;20461;-49
2023/07/23 05:18:37;;;;;;;;;;;;;;;;;;5070744;28;20303;-47
2023/07/23 05:21:03;;;;;;;;;;;;;;;;;;5070591;28;20367;-47
2023/07/23 05:23:29;;;;;;;;;;;;;;;;;;5070517;28;19908;-47
2023/07/23 05:25:55;;;;;;;;;;;;;;;;;;5070758;28;19908;-48
2023/07/23 05:28:21;;;;;;;;;;;;;;;;;;5070602;28;19916;-47
2023/07/23 05:30:47;;;;;;;;;;;;;;;;;;5070455;28;19909;-48
2023/07/23 05:33:13;;;;;;;;;;;;;;;;;;5052331;28;19970;-47
2023/07/23 05:35:39;;;;;;;;;;;;;;;;;;5070250;28;19913;-47
2023/07/23 05:38:05;;;;;;;;;;;;;;;;;;5070121;28;20006;-49
2023/07/23 05:40:35;;;;;;;;;;;;;;;;;;5070192;28;20017;-46
2023/07/23 05:43:01;;;;;;;;;;;;;;;;;;5070323;28;19912;-47
2023/07/23 05:45:27;;;;;;;;;;;;;;;;;;5070612;28;19931;-47
2023/07/23 05:47:53;;;;;;;;;;;;;;;;;;5073303;28;19997;-47
2023/07/23 05:50:19;;;;;;;;;;;;;;;;;;5112103;28;20369;-49
2023/07/23 05:52:45;;;;;;;;;;;;;;;;;;5112173;28;19914;-47
2023/07/23 05:55:11;;;;;;;;;;;;;;;;;;5111199;28;19973;-51
2023/07/23 05:57:36;;;;;;;;;;;;;;;;;;5082225;28;20410;-47
2023/07/23 06:00:03;;;;;;;;;;;;;;;;;;5089737;28;19912;-47
2023/07/23 06:02:29;;;;;;;;;;;;;;;;;;5089548;28;19951;-46
2023/07/23 06:04:55;;;;;;;;;;;;;;;;;;5090291;28;19948;-47
2023/07/23 06:07:21;;;;;;;;;;;;;;;;;;5090240;28;19912;-48
2023/07/23 06:09:46;;;;;;;;;;;;;;;;;;5089855;28;19909;-47
2023/07/23 06:12:12;;;;;;;;;;;;;;;;;;5089815;28;19920;-47
2023/07/23 06:14:38;;;;;;;;;;;;;;;;;;5090066;28;20383;-48
2023/07/23 06:17:04;;;;;;;;;;;;;;;;;;5089848;28;19908;-46
2023/07/23 06:19:30;;;;;;;;;;;;;;;;;;5090144;28;19908;-49
2023/07/23 06:21:56;;;;;;;;;;;;;;;;;;5089787;28;19969;-46
2023/07/23 06:24:22;;;;;;;;;;;;;;;;;;5088689;28;19916;-48
2023/07/23 06:26:48;;;;;;;;;;;;;;;;;;5090172;28;19969;-47
2023/07/23 06:29:14;;;;;;;;;;;;;;;;;;5090791;28;19908;-47
2023/07/23 06:31:40;;;;;;;;;;;;;;;;;;5090473;28;19908;-46
2023/07/23 06:34:07;;;;;;;;;;;;;;;;;;5090787;28;19938;-47
2023/07/23 06:36:33;;;;;;;;;;;;;;;;;;5090684;28;19930;-46
2023/07/23 06:38:59;;;;;;;;;;;;;;;;;;5085556;28;19912;-47
2023/07/23 06:41:26;;;;;;;;;;;;;;;;;;5090448;28;19927;-47
2023/07/23 06:43:51;;;;;;;;;;;;;;;;;;5090877;28;19908;-49
2023/07/23 06:46:20;;;;;;;;;;;;;;;;;;5090548;28;19908;-48
2023/07/23 06:48:45;;;;;;;;;;;;;;;;;;5072177;28;19908;-46
2023/07/23 06:51:11;;;;;;;;;;;;;;;;;;5090218;28;19915;-46
2023/07/23 06:53:37;;;;;;;;;;;;;;;;;;5090573;28;19936;-50
2023/07/23 06:56:03;;;;;;;;;;;;;;;;;;5090438;28;19908;-47
2023/07/23 06:58:29;;;;;;;;;;;;;;;;;;5090772;28;19908;-47
2023/07/23 07:00:55;;;;;;;;;;;;;;;;;;5090422;28;19919;-47
2023/07/23 07:03:21;;;;;;;;;;;;;;;;;;5090227;28;19939;-47
2023/07/23 07:05:47;;;;;;;;;;;;;;;;;;5090004;28;19908;-46
2023/07/23 07:08:13;;;;;;;;;;;;;;;;;;5090349;28;20032;-47
2023/07/23 07:10:39;;;;;;;;;;;;;;;;;;5087911;28;19919;-47
2023/07/23 07:13:04;;;;;;;;;;;;;;;;;;5083293;28;19916;-47
2023/07/23 07:15:30;;;;;;;;;;;;;;;;;;5083742;28;19912;-47
2023/07/23 07:17:56;;;;;;;;;;;;;;;;;;5093208;28;19996;-46
2023/07/23 07:20:22;;;;;;;;;;;;;;;;;;5090523;28;19953;-46
2023/07/23 07:22:48;;;;;;;;;;;;;;;;;;5072714;28;19909;-47
2023/07/23 07:25:14;;;;;;;;;;;;;;;;;;5073011;28;20276;-47
2023/07/23 07:27:40;;;;;;;;;;;;;;;;;;5072952;28;19909;-47
2023/07/23 07:30:06;;;;;;;;;;;;;;;;;;5072868;28;19912;-49
2023/07/23 07:32:33;;;;;;;;;;;;;;;;;;5071889;28;20413;-47
2023/07/23 07:34:59;;;;;;;;;;;;;;;;;;5075332;28;19969;-46
2023/07/23 07:37:25;;;;;;;;;;;;;;;;;;5092727;28;20011;-49
2023/07/23 07:39:51;;;;;;;;;;;;;;;;;;5092169;28;19999;-47
2023/07/23 07:42:17;;;;;;;;;;;;;;;;;;5089004;28;20005;-48
2023/07/23 07:44:43;;;;;;;;;;;;;;;;;;5086053;28;19913;-47
2023/07/23 07:47:09;;;;;;;;;;;;;;;;;;5073277;28;19965;-48
2023/07/23 07:49:35;;;;;;;;;;;;;;;;;;5087846;28;19912;-47
2023/07/23 07:52:01;;;;;;;;;;;;;;;;;;5084619;28;19919;-46
2023/07/23 07:54:27;;;;;;;;;;;;;;;;;;5091165;28;19923;-48
2023/07/23 07:56:54;;;;;;;;;;;;;;;;;;5093824;28;20382;-47
2023/07/23 07:59:20;;;;;;;;;;;;;;;;;;5092264;28;20422;-48
2023/07/23 08:01:45;;;;;;;;;;;;;;;;;;5093770;28;20014;-46
2023/07/23 08:04:11;;;;;;;;;;;;;;;;;;5092431;28;19910;-46
2023/07/23 08:06:37;;;;;;;;;;;;;;;;;;5093288;28;20060;-50
2023/07/23 08:09:03;;;;;;;;;;;;;;;;;;5093895;28;20344;-47
2023/07/23 08:11:29;;;;;;;;;;;;;;;;;;5093561;28;20401;-47
2023/07/23 08:13:55;;;;;;;;;;;;;;;;;;5093341;28;20365;-47
2023/07/23 08:16:21;;;;;;;;;;;;;;;;;;5093615;28;19912;-48
2023/07/23 08:18:47;;;;;;;;;;;;;;;;;;5093070;28;19908;-46
2023/07/23 08:21:12;;;;;;;;;;;;;;;;;;5093112;28;20010;-47
2023/07/23 08:23:38;;;;;;;;;;;;;;;;;;5092742;28;19912;-47
2023/07/23 08:26:04;;;;;;;;;;;;;;;;;;5093534;28;19908;-48
2023/07/23 08:28:30;;;;;;;;;;;;;;;;;;5091833;28;20000;-46
2023/07/23 08:30:56;;;;;;;;;;;;;;;;;;5093167;28;20453;-50
2023/07/23 08:33:22;;;;;;;;;;;;;;;;;;5092044;28;20401;-47
2023/07/23 08:35:48;;;;;;;;;;;;;;;;;;5091787;28;19912;-46
2023/07/23 08:38:15;;;;;;;;;;;;;;;;;;5092905;28;20381;-49
2023/07/23 08:40:41;;;;;;;;;;;;;;;;;;5091710;28;19916;-47
2023/07/23 08:43:07;;;;;;;;;;;;;;;;;;5092933;28;19916;-47
2023/07/23 08:45:33;;;;;;;;;;;;;;;;;;5092924;28;19988;-47
2023/07/23 08:47:59;;;;;;;;;;;;;;;;;;5092759;28;19909;-47
2023/07/23 08:50:25;;;;;;;;;;;;;;;;;;5092527;28;19908;-48
2023/07/23 08:52:50;;;;;;;;;;;;;;;;;;5089470;28;19912;-47
2023/07/23 08:55:16;;;;;;;;;;;;;;;;;;5088417;28;20334;-48
2023/07/23 08:57:42;;;;;;;;;;;;;;;;;;5092729;28;20338;-46
2023/07/23 09:00:09;;;;;;;;;;;;;;;;;;5092267;28;20293;-48
2023/07/23 09:02:35;;;;;;;;;;;;;;;;;;5092879;28;19912;-48
2023/07/23 09:05:01;;;;;;;;;;;;;;;;;;5092497;28;20064;-50
2023/07/23 09:07:26;;;;;;;;;;;;;;;;;;5092574;28;19998;-50
2023/07/23 09:09:52;;;;;;;;;;;;;;;;;;5092495;28;19912;-47
2023/07/23 09:12:18;;;;;;;;;;;;;;;;;;5092402;28;19912;-47
2023/07/23 09:14:44;;;;;;;;;;;;;;;;;;5092166;28;19970;-46
2023/07/23 09:17:10;;;;;;;;;;;;;;;;;;5092348;28;19918;-47
2023/07/23 09:19:36;;;;;;;;;;;;;;;;;;5091949;28;20271;-46
2023/07/23 09:22:02;;;;;;;;;;;;;;;;;;5092592;28;19916;-47
2023/07/23 09:24:28;;;;;;;;;;;;;;;;;;5088015;28;19909;-50
2023/07/23 09:26:54;;;;;;;;;;;;;;;;;;5063298;28;20347;-47
2023/07/23 09:29:19;;;;;;;;;;;;;;;;;;5083536;28;19912;-49
2023/07/23 09:31:45;;;;;;;;;;;;;;;;;;5089037;28;19912;-49
2023/07/23 09:34:11;;;;;;;;;;;;;;;;;;5087736;28;19908;-46
2023/07/23 09:36:37;;;;;;;;;;;;;;;;;;5089197;28;20290;-49
2023/07/23 09:39:03;;;;;;;;;;;;;;;;;;5090431;28;19964;-47
2023/07/23 09:41:29;;;;;;;;;;;;;;;;;;5089266;28;19919;-48
2023/07/23 09:43:55;;;;;;;;;;;;;;;;;;5086058;28;19913;-47
2023/07/23 09:46:21;;;;;;;;;;;;;;;;;;5089932;28;19931;-47
2023/07/23 09:48:50;;;;;;;;;;;;;;;;;;5071935;28;20332;-48
2023/07/23 09:51:16;;;;;;;;;;;;;;;;;;5090088;28;19912;-46
2023/07/23 09:53:45;;;;;;;;;;;;;;;;;;5090407;28;20153;-47
2023/07/23 09:56:11;;;;;;;;;;;;;;;;;;5084433;28;19912;-50
2023/07/23 09:58:44;;;;;;;;;;;;;;;;;;5107636;27;19920;-46
2023/07/23 10:01:10;;;;;;;;;;;;;;;;;;5096331;28;20424;-49
2023/07/23 10:03:36;;;;;;;;;;;;;;;;;;5094683;28;19912;-46
2023/07/23 10:06:02;;;;;;;;;;;;;;;;;;5095875;28;19912;-47
2023/07/23 10:08:28;;;;;;;;;;;;;;;;;;5092966;28;19934;-46
2023/07/23 10:10:54;;;;;;;;;;;;;;;;;;5106400;28;19911;-47
2023/07/23 10:13:20;;;;;;;;;;;;;;;;;;5105608;28;19911;-47
2023/07/23 10:21:15;;;;;;;;;;;;;;;;;;5098262;28;19961;-47
2023/07/23 10:23:41;;;;;;;;;;;;;;;;;;5099265;28;19916;-46
2023/07/23 10:26:07;;;;;;;;;;;;;;;;;;5091716;28;19970;-48
2023/07/23 10:28:34;;;;;;;;;;;;;;;;;;5101341;28;19916;-50
2023/07/23 10:33:37;;;;;;;;;;;;;;;;;;5086543;28;19942;-46
2023/07/23 10:36:03;;;;;;;;;;;;;;;;;;5086974;28;19912;-46
2023/07/23 10:38:29;;;;;;;;;;;;;;;;;;5086205;28;19909;-49
2023/07/23 10:40:55;;;;;;;;;;;;;;;;;;5087025;28;19920;-46
2023/07/23 10:43:21;;;;;;;;;;;;;;;;;;5087360;28;20409;-49
2023/07/23 10:45:49;;;;;;;;;;;;;;;;;;5091073;28;19912;-47
2023/07/23 10:48:14;;;;;;;;;;;;;;;;;;5094175;28;19952;-48
2023/07/23 10:50:42;;;;;;;;;;;;;;;;;;5083717;28;20441;-47
2023/07/23 10:53:08;;;;;;;;;;;;;;;;;;5083342;28;19973;-48
2023/07/23 10:55:34;;;;;;;;;;;;;;;;;;5068401;28;19908;-51
2023/07/23 10:58:00;;;;;;;;;;;;;;;;;;5083805;28;19912;-52
2023/07/23 11:00:25;;;;;;;;;;;;;;;;;;5082676;28;19909;-51
2023/07/23 11:02:53;;;;;;;;;;;;;;;;;;5080426;28;19917;-48
2023/07/23 11:05:19;;;;;;;;;;;;;;;;;;5076411;28;19927;-48
2023/07/23 11:07:45;;;;;;;;;;;;;;;;;;5076954;28;20367;-47
2023/07/23 11:10:10;;;;;;;;;;;;;;;;;;5082883;28;19909;-48
2023/07/23 11:12:36;;;;;;;;;;;;;;;;;;5080421;28;20023;-51
2023/07/23 11:15:02;;;;;;;;;;;;;;;;;;5067833;28;19912;-48
2023/07/23 11:17:28;;;;;;;;;;;;;;;;;;5073575;28;19917;-48
2023/07/23 11:19:54;;;;;;;;;;;;;;;;;;5078555;28;19952;-51
2023/07/23 11:22:20;;;;;;;;;;;;;;;;;;5076213;28;19913;-51
2023/07/23 11:24:46;;;;;;;;;;;;;;;;;;5082016;28;20492;-47
2023/07/23 11:27:12;;;;;;;;;;;;;;;;;;5081067;28;19943;-48
2023/07/23 11:29:38;;;;;;;;;;;;;;;;;;5083502;28;19920;-46
2023/07/23 11:32:05;;;;;;;;;;;;;;;;;;5071661;28;19917;-49
2023/07/23 11:34:31;;;;;;;;;;;;;;;;;;5078615;28;20294;-47
2023/07/23 11:36:57;;;;;;;;;;;;;;;;;;5082188;28;19912;-46
2023/07/23 11:39:24;;;;;;;;;;;;;;;;;;5073178;28;19919;-47
2023/07/23 11:41:50;;;;;;;;;;;;;;;;;;5067819;28;19919;-46
2023/07/23 11:44:16;;;;;;;;;;;;;;;;;;5069070;28;20003;-46
2023/07/23 11:46:42;;;;;;;;;;;;;;;;;;5068123;28;20019;-46
2023/07/23 11:49:08;;;;;;;;;;;;;;;;;;5065440;28;20362;-47
2023/07/23 11:51:34;;;;;;;;;;;;;;;;;;5066229;28;20370;-46
2023/07/23 11:54:00;;;;;;;;;;;;;;;;;;5069653;28;19912;-49
2023/07/23 11:56:26;;;;;;;;;;;;;;;;;;5070362;28;20322;-48
2023/07/23 11:58:52;;;;;;;;;;;;;;;;;;5069300;28;20023;-48
2023/07/23 12:01:18;;;;;;;;;;;;;;;;;;5069691;28;19913;-48
2023/07/23 12:03:44;;;;;;;;;;;;;;;;;;5066689;28;19935;-49
2023/07/23 12:06:10;;;;;;;;;;;;;;;;;;5068739;28;19912;-47
2023/07/23 12:08:38;;;;;;;;;;;;;;;;;;5055920;28;19909;-48
2023/07/23 12:11:04;;;;;;;;;;;;;;;;;;5065620;28;19919;-48
2023/07/23 12:13:30;;;;;;;;;;;;;;;;;;5065607;28;19912;-50
2023/07/23 12:15:57;;;;;;;;;;;;;;;;;;5069311;28;19912;-47
2023/07/23 12:18:23;;;;;;;;;;;;;;;;;;5068491;28;19916;-48
2023/07/23 12:20:49;;;;;;;;;;;;;;;;;;5062814;28;19909;-48
2023/07/23 12:23:15;;;;;;;;;;;;;;;;;;5049746;28;19924;-46
2023/07/23 12:25:41;;;;;;;;;;;;;;;;;;5067605;28;19961;-49
2023/07/23 12:28:08;;;;;;;;;;;;;;;;;;5064922;28;19974;-47
2023/07/23 12:30:34;;;;;;;;;;;;;;;;;;5054777;28;19913;-50
2023/07/23 12:33:00;;;;;;;;;;;;;;;;;;5062765;28;19917;-51
2023/07/23 12:35:25;;;;;;;;;;;;;;;;;;5057388;28;20294;-47
2023/07/23 12:37:51;;;;;;;;;;;;;;;;;;5059835;28;19929;-50
2023/07/23 12:40:18;;;;;;;;;;;;;;;;;;5068226;28;19912;-47
2023/07/23 12:42:44;;;;;;;;;;;;;;;;;;5059656;28;19924;-47
2023/07/23 12:45:10;;;;;;;;;;;;;;;;;;5052002;28;20358;-46
2023/07/23 12:47:36;;;;;;;;;;;;;;;;;;5066547;28;19966;-46
2023/07/23 12:50:02;;;;;;;;;;;;;;;;;;5066421;28;20314;-46
2023/07/23 12:52:28;;;;;;;;;;;;;;;;;;5053125;28;20020;-46
2023/07/23 12:54:54;;;;;;;;;;;;;;;;;;5051643;28;20014;-49
2023/07/23 12:57:23;;;;;;;;;;;;;;;;;;5068296;28;20397;-49
2023/07/23 12:59:49;;;;;;;;;;;;;;;;;;5066283;28;19919;-47
2023/07/23 13:02:15;;;;;;;;;;;;;;;;;;5064356;28;19913;-46
2023/07/23 13:04:41;;;;;;;;;;;;;;;;;;5066839;28;19912;-49
2023/07/23 13:07:07;;;;;;;;;;;;;;;;;;5065204;28;19913;-48
2023/07/23 13:09:33;;;;;;;;;;;;;;;;;;5051213;28;21292;-47
2023/07/23 13:11:58;;;;;;;;;;;;;;;;;;5059758;28;20018;-47
2023/07/23 13:14:24;;;;;;;;;;;;;;;;;;5064541;28;19966;-49
2023/07/23 13:16:51;;;;;;;;;;;;;;;;;;5063274;28;19920;-47
2023/07/23 13:19:17;;;;;;;;;;;;;;;;;;5067687;28;19924;-47
2023/07/23 13:21:43;;;;;;;;;;;;;;;;;;5055481;28;19912;-47
2023/07/23 13:24:09;;;;;;;;;;;;;;;;;;5052811;28;20386;-49
2023/07/23 13:26:34;;;;;;;;;;;;;;;;;;5065588;28;19977;-47
2023/07/23 13:29:00;;;;;;;;;;;;;;;;;;5067026;28;19913;-46
2023/07/23 13:31:26;;;;;;;;;;;;;;;;;;5064569;28;19914;-47
2023/07/23 13:33:52;;;;;;;;;;;;;;;;;;5066575;28;19916;-47
2023/07/23 13:36:18;;;;;;;;;;;;;;;;;;5061338;28;19927;-47
2023/07/23 13:38:44;;;;;;;;;;;;;;;;;;5054686;28;19920;-47
2023/07/23 13:41:10;;;;;;;;;;;;;;;;;;5056959;28;19920;-47
2023/07/23 13:43:36;;;;;;;;;;;;;;;;;;5057013;28;19912;-48
2023/07/23 13:46:02;;;;;;;;;;;;;;;;;;5067585;28;19912;-49
2023/07/23 13:48:27;;;;;;;;;;;;;;;;;;5066513;28;19920;-48
2023/07/23 13:50:53;;;;;;;;;;;;;;;;;;5068339;28;20399;-46
2023/07/23 13:53:19;;;;;;;;;;;;;;;;;;5066208;28;20400;-47
2023/07/23 13:55:45;;;;;;;;;;;;;;;;;;5064851;28;20341;-47
2023/07/23 13:58:11;;;;;;;;;;;;;;;;;;5064147;28;19920;-50
2023/07/23 14:00:37;;;;;;;;;;;;;;;;;;5063534;28;19912;-46
2023/07/23 14:03:03;;;;;;;;;;;;;;;;;;5063660;28;19948;-48
2023/07/23 14:05:29;;;;;;;;;;;;;;;;;;5061845;28;20337;-49
2023/07/23 14:07:56;;;;;;;;;;;;;;;;;;5055260;28;19969;-49
2023/07/23 14:10:22;;;;;;;;;;;;;;;;;;5055002;28;19977;-47
2023/07/23 14:12:48;;;;;;;;;;;;;;;;;;5048731;28;19917;-49
2023/07/23 14:15:14;;;;;;;;;;;;;;;;;;5059767;28;20302;-49
2023/07/23 14:17:40;;;;;;;;;;;;;;;;;;5052551;28;20010;-47
2023/07/23 14:20:06;;;;;;;;;;;;;;;;;;5055816;28;20325;-47
2023/07/23 14:22:31;;;;;;;;;;;;;;;;;;5066715;28;19943;-46
2023/07/23 14:24:57;;;;;;;;;;;;;;;;;;5056360;28;19917;-47
2023/07/23 14:27:23;;;;;;;;;;;;;;;;;;5062583;28;19919;-48
2023/07/23 14:29:49;;;;;;;;;;;;;;;;;;5068957;28;19970;-47
2023/07/23 14:32:15;;;;;;;;;;;;;;;;;;5066829;28;19924;-47
2023/07/23 14:34:41;;;;;;;;;;;;;;;;;;5057694;28;19917;-50
2023/07/23 14:37:08;;;;;;;;;;;;;;;;;;5055421;28;19913;-47
2023/07/23 14:39:34;;;;;;;;;;;;;;;;;;5053003;28;19913;-50
2023/07/23 14:42:00;;;;;;;;;;;;;;;;;;5057826;28;19931;-48
2023/07/23 14:44:26;;;;;;;;;;;;;;;;;;5066795;28;20009;-47
2023/07/23 14:46:52;;;;;;;;;;;;;;;;;;5065501;28;19955;-49
2023/07/23 14:49:18;;;;;;;;;;;;;;;;;;5070546;28;19920;-48
2023/07/23 14:51:44;;;;;;;;;;;;;;;;;;5063052;28;19955;-48
2023/07/23 14:54:10;;;;;;;;;;;;;;;;;;5063143;28;19948;-47
2023/07/23 14:56:36;;;;;;;;;;;;;;;;;;5052960;28;20375;-47
2023/07/23 14:59:01;;;;;;;;;;;;;;;;;;5052964;28;19913;-47
2023/07/23 15:01:27;;;;;;;;;;;;;;;;;;5068136;28;19959;-49
2023/07/23 15:03:53;;;;;;;;;;;;;;;;;;5063356;28;19913;-47
2023/07/23 15:06:19;;;;;;;;;;;;;;;;;;5071318;28;19912;-48
2023/07/23 15:08:45;;;;;;;;;;;;;;;;;;5078199;28;19916;-50
2023/07/23 15:11:11;;;;;;;;;;;;;;;;;;5064136;28;19913;-48
2023/07/23 15:13:37;;;;;;;;;;;;;;;;;;5053770;28;19919;-47
2023/07/23 15:16:03;;;;;;;;;;;;;;;;;;5061527;28;19951;-47
2023/07/23 15:18:29;;;;;;;;;;;;;;;;;;5060953;28;19912;-47
2023/07/23 15:20:54;;;;;;;;;;;;;;;;;;5064706;28;19960;-47
2023/07/23 15:23:20;;;;;;;;;;;;;;;;;;5053077;28;19912;-51
2023/07/23 15:25:46;;;;;;;;;;;;;;;;;;5062257;28;19912;-49
2023/07/23 15:28:13;;;;;;;;;;;;;;;;;;5067707;28;19908;-50
2023/07/23 15:30:39;;;;;;;;;;;;;;;;;;5067145;28;19982;-47
2023/07/23 15:33:05;;;;;;;;;;;;;;;;;;5057322;28;19920;-47
2023/07/23 15:35:31;;;;;;;;;;;;;;;;;;5068962;28;19912;-47
2023/07/23 15:37:57;;;;;;;;;;;;;;;;;;5068158;28;19952;-47
2023/07/23 15:40:23;;;;;;;;;;;;;;;;;;5071182;28;19909;-47
2023/07/23 15:42:48;;;;;;;;;;;;;;;;;;5072557;28;19916;-48
2023/07/23 15:45:14;;;;;;;;;;;;;;;;;;5068895;28;20462;-48
2023/07/23 15:47:40;;;;;;;;;;;;;;;;;;5055089;28;19913;-47
2023/07/23 15:50:09;;;;;;;;;;;;;;;;;;5068236;28;20010;-48
2023/07/23 15:52:34;;;;;;;;;;;;;;;;;;5073854;28;20291;-47
2023/07/23 15:55:00;;;;;;;;;;;;;;;;;;5056886;28;19920;-49
2023/07/23 15:57:26;;;;;;;;;;;;;;;;;;5066947;28;19958;-48
2023/07/23 15:59:52;;;;;;;;;;;;;;;;;;5069615;28;20391;-49
2023/07/23 16:02:18;;;;;;;;;;;;;;;;;;5054632;28;19916;-47
2023/07/23 16:04:44;;;;;;;;;;;;;;;;;;5070580;28;19958;-50
2023/07/23 16:07:10;;;;;;;;;;;;;;;;;;5061123;28;19928;-47
2023/07/23 16:09:36;;;;;;;;;;;;;;;;;;5050251;28;19931;-48
2023/07/23 16:12:01;;;;;;;;;;;;;;;;;;5054479;28;20301;-48
2023/07/23 16:14:27;;;;;;;;;;;;;;;;;;5075374;28;19966;-49
2023/07/23 16:16:53;;;;;;;;;;;;;;;;;;5068653;28;20441;-51
2023/07/23 16:19:19;;;;;;;;;;;;;;;;;;5065406;28;20470;-51
2023/07/23 16:21:45;;;;;;;;;;;;;;;;;;5069287;28;19924;-48
2023/07/23 16:24:11;;;;;;;;;;;;;;;;;;5064562;28;19919;-49
2023/07/23 16:26:37;;;;;;;;;;;;;;;;;;5064241;28;19913;-51
2023/07/23 16:29:03;;;;;;;;;;;;;;;;;;5068703;28;19923;-47
2023/07/23 16:31:29;;;;;;;;;;;;;;;;;;5065322;28;19919;-46
2023/07/23 16:33:55;;;;;;;;;;;;;;;;;;5063150;28;20054;-48
2023/07/23 16:36:21;;;;;;;;;;;;;;;;;;5068370;28;19919;-51
2023/07/23 16:38:47;;;;;;;;;;;;;;;;;;5063897;28;19912;-47
2023/07/23 16:41:13;;;;;;;;;;;;;;;;;;5066334;28;20552;-51
2023/07/23 16:43:39;;;;;;;;;;;;;;;;;;5068736;28;19920;-50
2023/07/23 16:46:05;;;;;;;;;;;;;;;;;;5077363;28;20013;-47
2023/07/23 16:48:31;;;;;;;;;;;;;;;;;;5061607;28;20449;-46
2023/07/23 16:50:57;;;;;;;;;;;;;;;;;;5059953;28;19912;-47
2023/07/23 16:53:23;;;;;;;;;;;;;;;;;;5064950;28;20407;-48
2023/07/23 16:55:48;;;;;;;;;;;;;;;;;;5062010;28;20449;-48
2023/07/23 16:58:14;;;;;;;;;;;;;;;;;;5057591;28;20342;-48
2023/07/23 17:00:40;;;;;;;;;;;;;;;;;;5053722;28;20003;-49
2023/07/23 17:03:06;;;;;;;;;;;;;;;;;;5064212;28;19913;-50
2023/07/23 17:05:32;;;;;;;;;;;;;;;;;;5061050;28;19912;-50
2023/07/23 17:07:58;;;;;;;;;;;;;;;;;;5065792;28;19947;-48
2023/07/23 17:10:24;;;;;;;;;;;;;;;;;;5063323;28;19913;-47
2023/07/23 17:12:50;;;;;;;;;;;;;;;;;;5079266;28;20372;-49
2023/07/23 17:15:15;;;;;;;;;;;;;;;;;;5065041;28;19922;-47
2023/07/23 17:17:41;;;;;;;;;;;;;;;;;;5058003;28;19981;-48
2023/07/23 17:20:07;;;;;;;;;;;;;;;;;;5064904;28;19919;-48
2023/07/23 17:22:33;;;;;;;;;;;;;;;;;;5065618;28;20449;-49
2023/07/23 17:24:59;;;;;;;;;;;;;;;;;;5057457;28;20568;-46
2023/07/23 17:27:25;;;;;;;;;;;;;;;;;;5061347;28;19924;-51
2023/07/23 17:29:51;;;;;;;;;;;;;;;;;;5058341;28;19912;-47
2023/07/23 17:32:17;;;;;;;;;;;;;;;;;;5058048;28;19952;-48
2023/07/23 17:34:43;;;;;;;;;;;;;;;;;;5065579;28;19913;-48
2023/07/23 17:37:09;;;;;;;;;;;;;;;;;;5063075;28;19951;-50
2023/07/23 17:39:34;;;;;;;;;;;;;;;;;;5058908;28;19912;-47
2023/07/23 17:42:00;;;;;;;;;;;;;;;;;;5050717;28;19913;-47
2023/07/23 17:44:26;;;;;;;;;;;;;;;;;;5051557;28;19962;-49
2023/07/23 17:46:52;;;;;;;;;;;;;;;;;;5061884;28;19916;-48
2023/07/23 17:49:18;;;;;;;;;;;;;;;;;;5052210;28;19920;-47
2023/07/23 17:51:44;;;;;;;;;;;;;;;;;;5053975;28;20414;-47
2023/07/23 17:54:10;;;;;;;;;;;;;;;;;;5059859;28;19965;-49
2023/07/23 17:56:37;;;;;;;;;;;;;;;;;;5062564;28;20318;-47
2023/07/23 17:59:02;;;;;;;;;;;;;;;;;;5061388;28;19943;-50
2023/07/23 18:01:28;;;;;;;;;;;;;;;;;;5060390;28;20387;-47
2023/07/23 18:03:54;;;;;;;;;;;;;;;;;;5050667;28;19920;-46
2023/07/23 18:06:20;;;;;;;;;;;;;;;;;;5057871;28;20365;-49
2023/07/23 18:08:46;;;;;;;;;;;;;;;;;;5057613;28;19913;-50
2023/07/23 18:11:12;;;;;;;;;;;;;;;;;;5057213;28;19912;-48
2023/07/23 18:13:38;;;;;;;;;;;;;;;;;;5055748;28;19917;-48
2023/07/23 18:16:04;;;;;;;;;;;;;;;;;;5079902;28;20517;-48
2023/07/23 18:18:30;;;;;;;;;;;;;;;;;;5059633;28;20373;-46
2023/07/23 18:20:56;;;;;;;;;;;;;;;;;;5058682;28;19917;-50
2023/07/23 18:23:22;;;;;;;;;;;;;;;;;;5055711;28;19920;-46
2023/07/23 18:25:48;;;;;;;;;;;;;;;;;;5057877;28;20320;-47
2023/07/23 18:28:14;;;;;;;;;;;;;;;;;;5053979;28;19913;-46
2023/07/23 18:30:40;;;;;;;;;;;;;;;;;;5053078;28;19920;-48
2023/07/23 18:33:06;;;;;;;;;;;;;;;;;;5050266;28;19969;-47
2023/07/23 18:35:31;;;;;;;;;;;;;;;;;;5048918;28;19971;-47
2023/07/23 18:37:57;;;;;;;;;;;;;;;;;;5046042;28;19931;-49
2023/07/23 18:40:23;;;;;;;;;;;;;;;;;;5060267;28;19945;-48
2023/07/23 18:42:49;;;;;;;;;;;;;;;;;;5064242;28;19935;-47
2023/07/23 18:45:15;;;;;;;;;;;;;;;;;;5054763;28;20097;-46
2023/07/23 18:47:41;;;;;;;;;;;;;;;;;;5060215;28;19912;-48
2023/07/23 18:50:07;;;;;;;;;;;;;;;;;;5056515;28;19962;-48
2023/07/23 18:52:33;;;;;;;;;;;;;;;;;;5058914;28;19954;-47
2023/07/23 18:54:59;;;;;;;;;;;;;;;;;;5060048;28;19921;-48
2023/07/23 18:57:25;;;;;;;;;;;;;;;;;;5061491;28;20334;-47
2023/07/23 18:59:51;;;;;;;;;;;;;;;;;;5062294;28;20075;-47
2023/07/23 19:02:16;;;;;;;;;;;;;;;;;;5063595;28;20258;-46
2023/07/23 19:04:42;;;;;;;;;;;;;;;;;;5062367;28;19951;-48
2023/07/23 19:07:08;;;;;;;;;;;;;;;;;;5065796;28;19969;-47
2023/07/23 19:09:34;;;;;;;;;;;;;;;;;;5053178;28;19920;-47
2023/07/23 19:12:00;;;;;;;;;;;;;;;;;;5059335;28;19917;-46
2023/07/23 19:14:26;;;;;;;;;;;;;;;;;;5065437;28;20000;-49
2023/07/23 19:16:52;;;;;;;;;;;;;;;;;;5062883;28;19920;-46
2023/07/23 19:19:18;;;;;;;;;;;;;;;;;;5066786;28;19912;-48
2023/07/23 19:21:43;;;;;;;;;;;;;;;;;;5064473;28;19912;-48
2023/07/23 19:24:13;;;;;;;;;;;;;;;;;;5064171;28;19935;-46
2023/07/23 19:26:38;;;;;;;;;;;;;;;;;;5049361;28;20395;-47
2023/07/23 19:29:04;;;;;;;;;;;;;;;;;;5054477;28;19913;-49
2023/07/23 19:31:30;;;;;;;;;;;;;;;;;;5067248;28;20466;-50
2023/07/23 19:33:56;;;;;;;;;;;;;;;;;;5067227;28;19913;-47
2023/07/23 19:36:22;;;;;;;;;;;;;;;;;;5067129;28;19920;-46
2023/07/23 19:38:48;;;;;;;;;;;;;;;;;;5064301;28;19916;-47
2023/07/23 19:41:16;;;;;;;;;;;;;;;;;;5055442;28;20124;-47
2023/07/23 19:43:42;;;;;;;;;;;;;;;;;;5063553;28;20299;-48
2023/07/23 19:46:08;;;;;;;;;;;;;;;;;;5064436;28;19923;-47
2023/07/23 19:48:34;;;;;;;;;;;;;;;;;;5057560;28;19931;-47
2023/07/23 19:51:00;;;;;;;;;;;;;;;;;;5066573;28;19912;-47
2023/07/23 19:53:26;;;;;;;;;;;;;;;;;;5066874;28;19921;-50
2023/07/23 19:55:52;;;;;;;;;;;;;;;;;;5065986;28;19912;-48
2023/07/23 19:58:18;;;;;;;;;;;;;;;;;;5065835;28;20189;-46
2023/07/23 20:00:44;;;;;;;;;;;;;;;;;;5061789;28;19990;-46
2023/07/23 20:03:10;;;;;;;;;;;;;;;;;;5049368;28;19967;-47
2023/07/23 20:05:36;;;;;;;;;;;;;;;;;;5063474;28;19970;-49
2023/07/23 20:08:02;;;;;;;;;;;;;;;;;;5066888;28;20038;-48
2023/07/23 20:10:28;;;;;;;;;;;;;;;;;;5054856;28;20258;-50
2023/07/23 20:12:53;;;;;;;;;;;;;;;;;;5066243;28;19913;-47
2023/07/23 20:15:20;;;;;;;;;;;;;;;;;;5048579;28;19929;-46
2023/07/23 20:17:46;;;;;;;;;;;;;;;;;;5056426;28;20398;-46
2023/07/23 20:20:12;;;;;;;;;;;;;;;;;;5067744;28;19958;-46
2023/07/23 20:22:38;;;;;;;;;;;;;;;;;;5068064;28;19912;-49
2023/07/23 20:25:04;;;;;;;;;;;;;;;;;;5059033;28;19923;-47
2023/07/23 20:27:30;;;;;;;;;;;;;;;;;;5064012;28;20353;-45
2023/07/23 20:29:56;;;;;;;;;;;;;;;;;;5051212;28;19920;-48
2023/07/23 20:32:22;;;;;;;;;;;;;;;;;;5063917;28;19920;-47
2023/07/23 20:34:48;;;;;;;;;;;;;;;;;;5065312;28;19923;-47
2023/07/23 20:37:14;;;;;;;;;;;;;;;;;;5066138;28;20340;-49
2023/07/23 20:39:42;;;;;;;;;;;;;;;;;;5065082;28;19927;-47
2023/07/23 20:42:08;;;;;;;;;;;;;;;;;;5063151;28;19916;-47
2023/07/23 20:44:33;;;;;;;;;;;;;;;;;;5064318;28;19939;-48
2023/07/23 20:46:59;;;;;;;;;;;;;;;;;;5055227;28;19972;-48
2023/07/23 20:49:25;;;;;;;;;;;;;;;;;;5072873;28;19913;-47
2023/07/23 20:51:51;;;;;;;;;;;;;;;;;;5060536;28;19916;-47
2023/07/23 20:54:17;;;;;;;;;;;;;;;;;;5061881;28;20287;-49
2023/07/23 20:56:44;;;;;;;;;;;;;;;;;;5067280;28;19919;-47
2023/07/23 20:59:11;;;;;;;;;;;;;;;;;;5064975;28;19973;-48
2023/07/23 21:01:36;;;;;;;;;;;;;;;;;;5066978;28;20196;-46
2023/07/23 21:04:02;;;;;;;;;;;;;;;;;;5066667;28;19913;-47
2023/07/23 21:06:28;;;;;;;;;;;;;;;;;;5067395;28;20439;-47
2023/07/23 21:08:54;;;;;;;;;;;;;;;;;;5066949;28;19912;-47
2023/07/23 21:11:20;;;;;;;;;;;;;;;;;;5066623;28;19908;-48
2023/07/23 21:13:46;;;;;;;;;;;;;;;;;;5065862;28;19924;-46
2023/07/23 21:16:12;;;;;;;;;;;;;;;;;;5046674;28;19920;-50
2023/07/23 21:18:37;;;;;;;;;;;;;;;;;;5061939;28;20015;-47
2023/07/23 21:21:03;;;;;;;;;;;;;;;;;;5047120;28;20915;-47
2023/07/23 21:23:29;;;;;;;;;;;;;;;;;;5046694;28;19909;-46
2023/07/23 21:25:55;;;;;;;;;;;;;;;;;;5058484;28;20562;-48
2023/07/23 21:28:21;;;;;;;;;;;;;;;;;;5066258;28;19912;-48
2023/07/23 21:30:47;;;;;;;;;;;;;;;;;;5066391;28;19969;-50
2023/07/23 21:33:13;;;;;;;;;;;;;;;;;;5066326;28;19924;-46
2023/07/23 21:35:40;;;;;;;;;;;;;;;;;;5065736;28;19993;-47
2023/07/23 21:38:06;;;;;;;;;;;;;;;;;;5066412;28;19914;-49
2023/07/23 21:40:32;;;;;;;;;;;;;;;;;;5066330;28;19912;-47
2023/07/23 21:42:58;;;;;;;;;;;;;;;;;;5066809;28;19913;-49
2023/07/23 21:45:23;;;;;;;;;;;;;;;;;;5067404;28;19942;-49
2023/07/23 21:47:50;;;;;;;;;;;;;;;;;;5066619;28;19920;-47
2023/07/23 21:50:16;;;;;;;;;;;;;;;;;;5068093;28;20362;-48
2023/07/23 21:52:42;;;;;;;;;;;;;;;;;;5069483;28;19920;-48
2023/07/23 21:55:08;;;;;;;;;;;;;;;;;;5068058;28;19921;-47